createdAt,value
2022-09-27T00:02:28.311Z,0.60
2022-09-27T00:07:30.372Z,0.80
2022-09-27T00:12:32.411Z,0.75
2022-09-27T00:17:34.363Z,0.73
2022-09-27T00:22:36.574Z,0.70
2022-09-27T00:27:38.498Z,0.82
2022-09-27T00:32:40.404Z,0.70
2022-09-27T00:37:42.993Z,0.70
2022-09-27T00:42:45.223Z,0.60
2022-09-27T00:48:01.129Z,0.65
2022-09-27T00:53:23.828Z,0.77
2022-09-27T00:58:37.747Z,0.85
2022-09-27T01:03:45.464Z,0.80
2022-09-27T01:08:47.632Z,0.73
2022-09-27T01:14:15.162Z,0.70
2022-09-27T01:19:39.386Z,0.90
2022-09-27T01:24:41.433Z,0.60
2022-09-27T01:30:01.987Z,0.95
2022-09-27T01:35:34.595Z,0.90
2022-09-27T01:40:42.516Z,0.60
2022-09-27T01:46:11.924Z,0.82
2022-09-27T01:51:45.437Z,0.80
2022-09-27T01:56:52.407Z,0.80
2022-09-27T02:02:03.612Z,0.98
2022-09-27T02:07:25.585Z,0.85
2022-09-27T02:12:35.906Z,0.90
2022-09-27T02:17:51.442Z,0.80
2022-09-27T02:23:31.896Z,1.17
2022-09-27T02:28:56.457Z,0.90
2022-09-27T02:34:13.923Z,1.17
2022-09-27T02:39:17.971Z,1.23
2022-09-27T02:44:21.469Z,1.83
2022-09-27T02:49:42.257Z,1.67
2022-09-27T02:55:24.883Z,2.05
2022-09-27T03:01:01.541Z,2.20
2022-09-27T03:06:37.861Z,2.80
2022-09-27T03:11:39.708Z,2.75
2022-09-27T03:16:41.864Z,3.38
2022-09-27T03:22:04.193Z,2.70
2022-09-27T03:27:06.437Z,3.35
2022-09-27T03:32:08.298Z,2.78
2022-09-27T03:37:37.925Z,2.40
2022-09-27T03:42:39.932Z,2.67
2022-09-27T03:47:42.041Z,2.80
2022-09-27T03:52:44.879Z,3.05
2022-09-27T03:57:47.544Z,3.30
2022-09-27T04:02:51.726Z,3.50
2022-09-27T04:07:59.772Z,3.42
2022-09-27T04:13:04.536Z,2.75
2022-09-27T04:18:11.831Z,3.22
2022-09-27T04:23:31.793Z,3.67
2022-09-27T04:28:33.814Z,3.17
2022-09-27T04:33:35.724Z,3.50
2022-09-27T04:38:41.938Z,3.05
2022-09-27T04:43:44.190Z,3.60
2022-09-27T04:48:46.255Z,3.25
2022-09-27T04:53:48.137Z,3.22
2022-09-27T04:58:50.148Z,3.45
2022-09-27T05:03:52.464Z,3.80
2022-09-27T05:08:54.446Z,3.20
2022-09-27T05:14:01.960Z,2.80
2022-09-27T05:19:04.763Z,3.20
2022-09-27T05:24:25.422Z,3.20
2022-09-27T05:29:28.819Z,3.10
2022-09-27T05:34:45.206Z,2.72
2022-09-27T05:39:47.356Z,3.10
2022-09-27T05:44:49.330Z,2.50
2022-09-27T05:49:51.898Z,2.47
2022-09-27T05:54:53.835Z,3.08
2022-09-27T05:59:55.856Z,2.22
2022-09-27T06:05:15.861Z,3.55
2022-09-27T06:10:37.731Z,2.00
2022-09-27T06:15:44.009Z,2.20
2022-09-27T06:20:46.284Z,2.55
2022-09-27T06:25:49.233Z,2.45
2022-09-27T06:31:15.584Z,2.42
2022-09-27T06:36:51.504Z,2.47
2022-09-27T06:41:58.288Z,2.35
2022-09-27T06:47:19.470Z,2.60
2022-09-27T06:52:38.176Z,2.17
2022-09-27T06:57:58.705Z,2.08
2022-09-27T07:03:03.273Z,2.22
2022-09-27T07:08:40.240Z,1.65
2022-09-27T07:13:43.729Z,1.77
2022-09-27T07:18:48.449Z,1.25
2022-09-27T07:23:50.703Z,1.20
2022-09-27T07:28:53.537Z,0.85
2022-09-27T07:33:57.253Z,1.00
2022-09-27T07:39:00.193Z,0.90
2022-09-27T07:44:02.596Z,0.90
2022-09-27T07:49:08.222Z,0.60
2022-09-27T07:54:25.197Z,0.50
2022-09-27T07:59:49.368Z,0.70
2022-09-27T08:04:54.146Z,0.60
2022-09-27T08:09:57.103Z,0.40
2022-09-27T08:15:01.535Z,0.52
2022-09-27T08:20:06.554Z,0.50
2022-09-27T08:25:30.597Z,0.50
2022-09-27T08:31:00.243Z,0.40
2022-09-27T08:36:03.534Z,0.63
2022-09-27T08:41:29.237Z,0.50
2022-09-27T08:46:48.880Z,0.40
2022-09-27T08:51:54.156Z,0.40
2022-09-27T08:57:03.901Z,0.30
2022-09-27T09:02:16.266Z,0.20
2022-09-27T09:07:32.582Z,0.30
2022-09-27T09:12:48.623Z,0.22
2022-09-27T09:18:20.964Z,0.67
2022-09-27T09:23:50.433Z,0.20
2022-09-27T09:29:20.664Z,0.40
2022-09-27T09:34:28.200Z,0.20
2022-09-27T09:39:44.384Z,0.28
2022-09-27T09:45:00.267Z,0.20
2022-09-27T09:50:18.553Z,0.30
2022-09-27T10:00:26.107Z,0.30
2022-09-27T10:05:29.444Z,0.40
2022-09-27T10:10:38.628Z,0.40
2022-09-27T10:21:38.723Z,0.40
2022-09-27T10:26:44.123Z,0.20
2022-09-27T10:31:48.727Z,0.30
2022-09-27T10:37:17.377Z,0.20
2022-09-27T10:42:38.992Z,0.30
2022-09-27T10:47:44.643Z,0.20
2022-09-27T10:53:06.934Z,0.17
2022-09-27T10:58:20.817Z,0.20
2022-09-27T11:03:26.505Z,0.13
2022-09-27T11:08:34.147Z,0.20
2022-09-27T11:14:05.281Z,0.20
2022-09-27T11:19:36.616Z,0.20
2022-09-27T11:25:04.877Z,0.30
2022-09-27T11:30:14.087Z,0.30
2022-09-27T11:35:42.283Z,0.40
2022-09-27T11:41:22.931Z,0.20
2022-09-27T11:46:41.330Z,0.20
2022-09-27T11:51:52.073Z,0.30
2022-09-27T11:57:23.383Z,0.40
2022-09-27T12:02:54.767Z,0.50
2022-09-27T12:08:08.787Z,0.38
2022-09-27T12:13:14.727Z,0.32
2022-09-27T12:18:35.403Z,0.43
2022-09-27T12:23:47.469Z,0.40
2022-09-27T12:29:27.840Z,0.40
2022-09-27T12:34:50.841Z,0.47
2022-09-27T12:39:55.840Z,0.40
2022-09-27T12:45:05.833Z,0.20
2022-09-27T12:50:07.678Z,0.40
2022-09-27T12:55:12.431Z,0.30
2022-09-27T13:00:25.714Z,0.45
2022-09-27T13:06:00.677Z,0.30
2022-09-27T13:11:30.495Z,0.30
2022-09-27T13:16:46.890Z,0.28
2022-09-27T13:21:51.475Z,0.28
2022-09-27T13:27:36.566Z,0.30
2022-09-27T13:32:41.030Z,0.20
2022-09-27T13:37:54.304Z,0.30
2022-09-27T13:43:13.446Z,0.38
2022-09-27T13:48:36.679Z,0.30
2022-09-27T13:53:41.363Z,0.35
2022-09-27T13:58:52.824Z,0.30
2022-09-27T14:04:18.355Z,0.30
2022-09-27T14:09:32.071Z,0.40
2022-09-27T14:14:49.972Z,0.30
2022-09-27T14:19:54.280Z,0.30
2022-09-27T14:24:58.133Z,0.60
2022-09-27T14:30:17.296Z,0.45
2022-09-27T14:35:50.471Z,0.55
2022-09-27T14:40:53.398Z,0.50
2022-09-27T14:46:07.161Z,0.30
2022-09-27T14:51:15.074Z,0.30
2022-09-27T14:56:32.530Z,0.50
2022-09-27T15:01:35.265Z,0.30
2022-09-27T15:06:37.350Z,0.40
2022-09-27T15:11:41.695Z,0.30
2022-09-27T15:16:49.469Z,0.30
2022-09-27T15:21:51.626Z,0.30
2022-09-27T15:26:53.460Z,0.40
2022-09-27T15:32:06.926Z,0.47
2022-09-27T15:37:26.405Z,0.43
2022-09-27T15:42:28.279Z,0.40
2022-09-27T15:47:34.576Z,0.70
2022-09-27T15:52:43.777Z,0.57
2022-09-27T15:57:50.628Z,0.70
2022-09-27T16:02:52.886Z,0.57
2022-09-27T16:07:54.730Z,0.60
2022-09-27T16:12:56.709Z,0.47
2022-09-27T16:17:59.101Z,0.50
2022-09-27T16:23:00.968Z,0.90
2022-09-27T16:28:05.331Z,0.80
2022-09-27T16:33:07.078Z,0.40
2022-09-27T16:38:09.333Z,0.50
2022-09-27T16:43:12.139Z,0.70
2022-09-27T16:48:13.983Z,0.98
2022-09-27T16:53:16.091Z,1.10
2022-09-27T16:58:17.943Z,1.10
2022-09-27T17:03:19.816Z,0.63
2022-09-27T17:08:26.331Z,0.50
2022-09-27T17:13:28.167Z,0.70
2022-09-27T17:18:29.926Z,0.60
2022-09-27T17:23:32.691Z,0.80
2022-09-27T17:28:36.677Z,1.02
2022-09-27T17:33:46.140Z,0.50
2022-09-27T17:38:49.145Z,0.90
2022-09-27T17:43:56.557Z,0.68
2022-09-27T17:49:17.497Z,0.85
2022-09-27T17:54:22.894Z,0.73
2022-09-27T17:59:26.289Z,0.68
2022-09-27T18:04:28.551Z,0.80
2022-09-27T18:09:30.525Z,1.38
2022-09-27T18:14:32.343Z,0.68
2022-09-27T18:19:34.098Z,0.60
2022-09-27T18:24:35.967Z,0.82
2022-09-27T18:29:37.803Z,0.60
2022-09-27T18:34:40.355Z,0.63
2022-09-27T18:39:42.137Z,1.55
2022-09-27T18:44:43.857Z,0.70
2022-09-27T18:49:45.553Z,0.50
2022-09-27T18:54:47.567Z,0.50
2022-09-27T18:59:49.502Z,0.50
2022-09-27T19:04:51.337Z,0.50
2022-09-27T19:09:53.664Z,0.80
2022-09-27T19:14:55.512Z,0.65
2022-09-27T19:19:57.317Z,0.70
2022-09-27T19:24:59.362Z,0.50
2022-09-27T19:30:01.300Z,0.50
2022-09-27T19:35:04.187Z,0.40
2022-09-27T19:40:06.907Z,0.43
2022-09-27T19:45:11.699Z,0.52
2022-09-27T19:50:13.589Z,0.63
2022-09-27T19:55:15.877Z,0.55
2022-09-27T20:00:17.828Z,0.25
2022-09-27T20:05:19.592Z,0.40
2022-09-27T20:10:21.759Z,0.52
2022-09-27T20:15:23.647Z,0.43
2022-09-27T20:20:25.496Z,0.32
2022-09-27T20:25:28.528Z,0.40
2022-09-27T20:30:30.406Z,0.47
2022-09-27T20:35:32.287Z,0.45
2022-09-27T20:40:34.109Z,0.50
2022-09-27T20:45:35.938Z,0.40
2022-09-27T20:50:37.686Z,0.50
2022-09-27T20:55:39.490Z,0.65
2022-09-27T21:00:41.595Z,0.75
2022-09-27T21:05:43.438Z,0.90
2022-09-27T21:10:49.150Z,0.75
2022-09-27T21:15:53.680Z,0.80
2022-09-27T21:21:05.182Z,0.50
2022-09-27T21:26:12.646Z,0.70
2022-09-27T21:31:22.343Z,0.93
2022-09-27T21:36:28.195Z,0.60
2022-09-27T21:41:30.024Z,0.63
2022-09-27T21:46:32.007Z,0.50
2022-09-27T21:51:37.631Z,0.40
2022-09-27T21:56:40.901Z,0.60
2022-09-27T22:01:44.362Z,0.80
2022-09-27T22:06:46.232Z,0.68
2022-09-27T22:11:48.134Z,1.23
2022-09-27T22:16:50.054Z,0.82
2022-09-27T22:21:51.911Z,0.40
2022-09-27T22:26:54.250Z,0.90
2022-09-27T22:31:55.995Z,0.98
2022-09-27T22:37:00.865Z,0.50
2022-09-27T22:42:02.648Z,0.70
2022-09-27T22:47:05.384Z,0.50
2022-09-27T22:52:07.178Z,0.65
2022-09-27T22:57:08.926Z,0.50
2022-09-27T23:02:10.713Z,0.50
2022-09-27T23:07:13.313Z,0.40
2022-09-27T23:12:15.047Z,0.57
2022-09-27T23:17:19.274Z,0.70
2022-09-27T23:22:21.232Z,0.52
2022-09-27T23:27:41.706Z,0.50
2022-09-27T23:32:47.303Z,0.60
2022-09-27T23:37:53.300Z,0.70
2022-09-27T23:42:55.092Z,0.60
2022-09-27T23:47:57.592Z,0.45
2022-09-27T23:52:59.681Z,0.50
2022-09-27T23:58:02.013Z,0.40
